sensor_id;sensor_type;location;lat;lon;timestamp;P1;durP1;ratioP1;P2;durP2;ratioP2
36457;SDS011;22480;50.546;12.292;2024-02-26T00:01:54;17.67;;;10.77;;
36457;SDS011;22480;50.546;12.292;2024-02-26T00:04:20;16.27;;;9.47;;
36457;SDS011;22480;50.546;12.292;2024-02-26T00:06:46;17.43;;;10.50;;
36457;SDS011;22480;50.546;12.292;2024-02-26T00:09:13;17.30;;;9.93;;
36457;SDS011;22480;50.546;12.292;2024-02-26T00:11:38;18.07;;;10.30;;
36457;SDS011;22480;50.546;12.292;2024-02-26T00:14:04;18.13;;;9.17;;
36457;SDS011;22480;50.546;12.292;2024-02-26T00:16:30;18.53;;;10.33;;
36457;SDS011;22480;50.546;12.292;2024-02-26T00:18:55;19.07;;;11.03;;
36457;SDS011;22480;50.546;12.292;2024-02-26T00:21:21;20.07;;;11.07;;
36457;SDS011;22480;50.546;12.292;2024-02-26T00:23:47;18.47;;;11.03;;
36457;SDS011;22480;50.546;12.292;2024-02-26T00:26:14;16.90;;;10.10;;
36457;SDS011;22480;50.546;12.292;2024-02-26T00:28:40;17.53;;;10.30;;
36457;SDS011;22480;50.546;12.292;2024-02-26T00:31:06;19.87;;;10.67;;
36457;SDS011;22480;50.546;12.292;2024-02-26T00:33:31;19.33;;;10.70;;
36457;SDS011;22480;50.546;12.292;2024-02-26T00:35:57;19.47;;;10.30;;
36457;SDS011;22480;50.546;12.292;2024-02-26T00:38:23;20.03;;;10.87;;
36457;SDS011;22480;50.546;12.292;2024-02-26T00:40:48;18.47;;;10.33;;
36457;SDS011;22480;50.546;12.292;2024-02-26T00:43:14;19.70;;;10.90;;
36457;SDS011;22480;50.546;12.292;2024-02-26T00:45:39;21.07;;;11.07;;
36457;SDS011;22480;50.546;12.292;2024-02-26T00:48:05;19.13;;;10.57;;
36457;SDS011;22480;50.546;12.292;2024-02-26T00:50:32;18.53;;;10.80;;
36457;SDS011;22480;50.546;12.292;2024-02-26T00:52:59;18.03;;;11.27;;
36457;SDS011;22480;50.546;12.292;2024-02-26T00:55:25;19.17;;;11.13;;
36457;SDS011;22480;50.546;12.292;2024-02-26T00:57:50;17.83;;;10.90;;
36457;SDS011;22480;50.546;12.292;2024-02-26T01:00:16;18.77;;;10.53;;
36457;SDS011;22480;50.546;12.292;2024-02-26T01:02:42;19.60;;;10.50;;
36457;SDS011;22480;50.546;12.292;2024-02-26T01:05:08;21.00;;;11.20;;
36457;SDS011;22480;50.546;12.292;2024-02-26T01:07:37;19.97;;;10.77;;
36457;SDS011;22480;50.546;12.292;2024-02-26T01:10:02;15.93;;;9.67;;
36457;SDS011;22480;50.546;12.292;2024-02-26T01:12:29;17.37;;;10.67;;
36457;SDS011;22480;50.546;12.292;2024-02-26T01:14:55;18.33;;;9.90;;
36457;SDS011;22480;50.546;12.292;2024-02-26T01:17:20;16.63;;;10.00;;
36457;SDS011;22480;50.546;12.292;2024-02-26T01:19:46;18.83;;;10.23;;
36457;SDS011;22480;50.546;12.292;2024-02-26T01:22:12;16.83;;;10.43;;
36457;SDS011;22480;50.546;12.292;2024-02-26T01:24:38;18.73;;;9.57;;
36457;SDS011;22480;50.546;12.292;2024-02-26T01:27:03;17.33;;;10.20;;
36457;SDS011;22480;50.546;12.292;2024-02-26T01:29:29;15.60;;;9.47;;
36457;SDS011;22480;50.546;12.292;2024-02-26T01:31:55;14.57;;;9.43;;
36457;SDS011;22480;50.546;12.292;2024-02-26T01:34:21;16.43;;;8.93;;
36457;SDS011;22480;50.546;12.292;2024-02-26T01:36:47;15.43;;;9.47;;
36457;SDS011;22480;50.546;12.292;2024-02-26T01:39:12;16.57;;;8.50;;
36457;SDS011;22480;50.546;12.292;2024-02-26T01:41:38;16.07;;;8.97;;
36457;SDS011;22480;50.546;12.292;2024-02-26T01:44:05;11.07;;;7.57;;
36457;SDS011;22480;50.546;12.292;2024-02-26T01:46:31;17.43;;;8.97;;
36457;SDS011;22480;50.546;12.292;2024-02-26T01:48:59;14.00;;;8.20;;
36457;SDS011;22480;50.546;12.292;2024-02-26T01:51:26;11.87;;;7.50;;
36457;SDS011;22480;50.546;12.292;2024-02-26T01:53:52;12.63;;;7.73;;
36457;SDS011;22480;50.546;12.292;2024-02-26T01:56:18;11.27;;;7.30;;
36457;SDS011;22480;50.546;12.292;2024-02-26T01:58:46;12.90;;;7.17;;
36457;SDS011;22480;50.546;12.292;2024-02-26T02:01:13;16.07;;;8.63;;
36457;SDS011;22480;50.546;12.292;2024-02-26T02:03:43;14.63;;;8.50;;
36457;SDS011;22480;50.546;12.292;2024-02-26T02:06:10;11.80;;;7.50;;
36457;SDS011;22480;50.546;12.292;2024-02-26T02:08:37;14.00;;;8.10;;
36457;SDS011;22480;50.546;12.292;2024-02-26T02:11:03;18.50;;;9.57;;
36457;SDS011;22480;50.546;12.292;2024-02-26T02:13:29;17.43;;;8.93;;
36457;SDS011;22480;50.546;12.292;2024-02-26T02:15:54;16.90;;;9.87;;
36457;SDS011;22480;50.546;12.292;2024-02-26T02:18:20;17.70;;;10.90;;
36457;SDS011;22480;50.546;12.292;2024-02-26T02:20:46;17.63;;;9.57;;
36457;SDS011;22480;50.546;12.292;2024-02-26T02:23:11;20.43;;;9.87;;
36457;SDS011;22480;50.546;12.292;2024-02-26T02:25:37;19.17;;;10.80;;
36457;SDS011;22480;50.546;12.292;2024-02-26T02:28:03;20.27;;;9.93;;
36457;SDS011;22480;50.546;12.292;2024-02-26T02:30:29;17.77;;;9.57;;
36457;SDS011;22480;50.546;12.292;2024-02-26T02:32:58;16.37;;;9.63;;
36457;SDS011;22480;50.546;12.292;2024-02-26T02:35:24;17.17;;;9.97;;
36457;SDS011;22480;50.546;12.292;2024-02-26T02:37:53;19.60;;;10.47;;
36457;SDS011;22480;50.546;12.292;2024-02-26T02:40:20;18.40;;;10.32;;
36457;SDS011;22480;50.546;12.292;2024-02-26T02:42:45;19.97;;;9.63;;
36457;SDS011;22480;50.546;12.292;2024-02-26T02:45:11;19.30;;;9.70;;
36457;SDS011;22480;50.546;12.292;2024-02-26T02:47:36;21.60;;;10.33;;
36457;SDS011;22480;50.546;12.292;2024-02-26T02:50:05;20.17;;;10.57;;
36457;SDS011;22480;50.546;12.292;2024-02-26T02:52:31;23.80;;;11.80;;
36457;SDS011;22480;50.546;12.292;2024-02-26T02:54:57;21.23;;;10.60;;
36457;SDS011;22480;50.546;12.292;2024-02-26T02:57:23;20.87;;;10.20;;
36457;SDS011;22480;50.546;12.292;2024-02-26T02:59:49;27.27;;;11.97;;
36457;SDS011;22480;50.546;12.292;2024-02-26T03:02:14;25.70;;;12.67;;
36457;SDS011;22480;50.546;12.292;2024-02-26T03:04:40;27.67;;;12.17;;
36457;SDS011;22480;50.546;12.292;2024-02-26T03:07:06;24.80;;;12.40;;
36457;SDS011;22480;50.546;12.292;2024-02-26T03:09:31;24.27;;;12.20;;
36457;SDS011;22480;50.546;12.292;2024-02-26T03:11:57;24.83;;;12.97;;
36457;SDS011;22480;50.546;12.292;2024-02-26T03:14:23;25.97;;;12.73;;
36457;SDS011;22480;50.546;12.292;2024-02-26T03:16:48;27.03;;;13.27;;
36457;SDS011;22480;50.546;12.292;2024-02-26T03:19:14;32.57;;;14.73;;
36457;SDS011;22480;50.546;12.292;2024-02-26T03:21:43;27.02;;;13.77;;
36457;SDS011;22480;50.546;12.292;2024-02-26T03:24:09;27.83;;;13.27;;
36457;SDS011;22480;50.546;12.292;2024-02-26T03:26:36;25.77;;;13.03;;
36457;SDS011;22480;50.546;12.292;2024-02-26T03:29:02;25.43;;;13.10;;
36457;SDS011;22480;50.546;12.292;2024-02-26T03:31:28;32.20;;;14.80;;
36457;SDS011;22480;50.546;12.292;2024-02-26T03:33:53;35.13;;;16.23;;
36457;SDS011;22480;50.546;12.292;2024-02-26T03:36:19;35.50;;;16.90;;
36457;SDS011;22480;50.546;12.292;2024-02-26T03:38:46;34.67;;;16.03;;
36457;SDS011;22480;50.546;12.292;2024-02-26T03:41:12;35.77;;;17.47;;
36457;SDS011;22480;50.546;12.292;2024-02-26T03:43:38;39.47;;;17.47;;
36457;SDS011;22480;50.546;12.292;2024-02-26T03:46:06;42.17;;;16.63;;
36457;SDS011;22480;50.546;12.292;2024-02-26T03:48:33;39.73;;;17.60;;
36457;SDS011;22480;50.546;12.292;2024-02-26T03:50:59;36.53;;;17.20;;
36457;SDS011;22480;50.546;12.292;2024-02-26T03:53:25;40.87;;;16.93;;
36457;SDS011;22480;50.546;12.292;2024-02-26T03:55:51;37.97;;;16.33;;
36457;SDS011;22480;50.546;12.292;2024-02-26T03:58:17;36.47;;;16.30;;
36457;SDS011;22480;50.546;12.292;2024-02-26T04:00:43;37.93;;;16.90;;
36457;SDS011;22480;50.546;12.292;2024-02-26T04:03:09;38.50;;;16.10;;
36457;SDS011;22480;50.546;12.292;2024-02-26T04:05:35;35.73;;;15.43;;
36457;SDS011;22480;50.546;12.292;2024-02-26T04:08:01;41.33;;;16.60;;
36457;SDS011;22480;50.546;12.292;2024-02-26T04:10:27;38.43;;;17.17;;
36457;SDS011;22480;50.546;12.292;2024-02-26T04:12:53;55.87;;;22.70;;
36457;SDS011;22480;50.546;12.292;2024-02-26T04:15:18;60.17;;;24.33;;
36457;SDS011;22480;50.546;12.292;2024-02-26T04:17:44;54.93;;;22.83;;
36457;SDS011;22480;50.546;12.292;2024-02-26T04:20:13;48.43;;;19.97;;
36457;SDS011;22480;50.546;12.292;2024-02-26T04:22:40;50.93;;;21.83;;
36457;SDS011;22480;50.546;12.292;2024-02-26T04:25:06;46.93;;;20.40;;
36457;SDS011;22480;50.546;12.292;2024-02-26T04:27:32;45.80;;;21.07;;
36457;SDS011;22480;50.546;12.292;2024-02-26T04:29:58;42.73;;;18.23;;
36457;SDS011;22480;50.546;12.292;2024-02-26T04:32:23;49.30;;;20.03;;
36457;SDS011;22480;50.546;12.292;2024-02-26T04:34:49;42.07;;;17.50;;
36457;SDS011;22480;50.546;12.292;2024-02-26T04:37:15;47.77;;;20.87;;
36457;SDS011;22480;50.546;12.292;2024-02-26T04:39:40;47.70;;;19.53;;
36457;SDS011;22480;50.546;12.292;2024-02-26T04:42:06;49.50;;;20.33;;
36457;SDS011;22480;50.546;12.292;2024-02-26T04:44:32;49.53;;;20.03;;
36457;SDS011;22480;50.546;12.292;2024-02-26T04:46:58;46.80;;;19.17;;
36457;SDS011;22480;50.546;12.292;2024-02-26T04:49:23;40.17;;;17.87;;
36457;SDS011;22480;50.546;12.292;2024-02-26T04:51:49;46.37;;;19.50;;
36457;SDS011;22480;50.546;12.292;2024-02-26T04:54:15;37.03;;;18.23;;
36457;SDS011;22480;50.546;12.292;2024-02-26T04:56:41;44.57;;;19.13;;
36457;SDS011;22480;50.546;12.292;2024-02-26T04:59:06;45.83;;;18.47;;
36457;SDS011;22480;50.546;12.292;2024-02-26T05:01:32;44.57;;;19.93;;
36457;SDS011;22480;50.546;12.292;2024-02-26T05:03:58;45.30;;;18.73;;
36457;SDS011;22480;50.546;12.292;2024-02-26T05:06:23;46.80;;;19.67;;
36457;SDS011;22480;50.546;12.292;2024-02-26T05:08:49;45.63;;;19.90;;
36457;SDS011;22480;50.546;12.292;2024-02-26T05:11:15;49.20;;;19.53;;
36457;SDS011;22480;50.546;12.292;2024-02-26T05:13:40;49.60;;;19.87;;
36457;SDS011;22480;50.546;12.292;2024-02-26T05:16:06;45.30;;;19.63;;
36457;SDS011;22480;50.546;12.292;2024-02-26T05:18:32;41.03;;;19.43;;
36457;SDS011;22480;50.546;12.292;2024-02-26T05:20:57;43.93;;;18.47;;
36457;SDS011;22480;50.546;12.292;2024-02-26T05:23:23;43.33;;;18.93;;
36457;SDS011;22480;50.546;12.292;2024-02-26T05:25:48;40.07;;;18.57;;
36457;SDS011;22480;50.546;12.292;2024-02-26T05:28:14;45.60;;;19.47;;
36457;SDS011;22480;50.546;12.292;2024-02-26T05:30:45;49.67;;;20.17;;
36457;SDS011;22480;50.546;12.292;2024-02-26T05:33:11;47.83;;;21.77;;
36457;SDS011;22480;50.546;12.292;2024-02-26T05:35:37;49.27;;;21.23;;
36457;SDS011;22480;50.546;12.292;2024-02-26T05:38:03;57.53;;;21.13;;
36457;SDS011;22480;50.546;12.292;2024-02-26T05:40:29;53.10;;;21.03;;
36457;SDS011;22480;50.546;12.292;2024-02-26T05:42:55;57.77;;;21.83;;
36457;SDS011;22480;50.546;12.292;2024-02-26T05:45:21;49.37;;;20.60;;
36457;SDS011;22480;50.546;12.292;2024-02-26T05:47:47;46.33;;;20.00;;
36457;SDS011;22480;50.546;12.292;2024-02-26T05:50:13;46.33;;;19.20;;
36457;SDS011;22480;50.546;12.292;2024-02-26T05:52:40;51.40;;;19.60;;
36457;SDS011;22480;50.546;12.292;2024-02-26T05:55:06;73.13;;;32.57;;
36457;SDS011;22480;50.546;12.292;2024-02-26T05:57:33;73.53;;;34.63;;
36457;SDS011;22480;50.546;12.292;2024-02-26T05:59:59;67.43;;;30.73;;
36457;SDS011;22480;50.546;12.292;2024-02-26T06:02:36;64.70;;;31.03;;
36457;SDS011;22480;50.546;12.292;2024-02-26T06:05:02;63.70;;;32.67;;
36457;SDS011;22480;50.546;12.292;2024-02-26T06:07:28;70.73;;;32.47;;
36457;SDS011;22480;50.546;12.292;2024-02-26T06:09:54;68.83;;;31.30;;
36457;SDS011;22480;50.546;12.292;2024-02-26T06:12:19;72.30;;;33.93;;
36457;SDS011;22480;50.546;12.292;2024-02-26T06:14:45;66.03;;;29.87;;
36457;SDS011;22480;50.546;12.292;2024-02-26T06:17:10;54.87;;;27.57;;
36457;SDS011;22480;50.546;12.292;2024-02-26T06:19:36;55.80;;;26.83;;
36457;SDS011;22480;50.546;12.292;2024-02-26T06:22:02;50.80;;;24.00;;
36457;SDS011;22480;50.546;12.292;2024-02-26T06:24:27;56.90;;;24.07;;
36457;SDS011;22480;50.546;12.292;2024-02-26T06:26:53;56.60;;;25.13;;
36457;SDS011;22480;50.546;12.292;2024-02-26T06:29:18;56.17;;;25.57;;
36457;SDS011;22480;50.546;12.292;2024-02-26T06:31:44;54.57;;;24.63;;
36457;SDS011;22480;50.546;12.292;2024-02-26T06:34:10;56.23;;;25.93;;
36457;SDS011;22480;50.546;12.292;2024-02-26T06:36:36;62.23;;;29.00;;
36457;SDS011;22480;50.546;12.292;2024-02-26T06:39:02;66.10;;;31.53;;
36457;SDS011;22480;50.546;12.292;2024-02-26T06:41:28;61.23;;;30.90;;
36457;SDS011;22480;50.546;12.292;2024-02-26T06:43:55;55.13;;;29.73;;
36457;SDS011;22480;50.546;12.292;2024-02-26T06:46:20;55.17;;;27.93;;
36457;SDS011;22480;50.546;12.292;2024-02-26T06:48:47;50.30;;;24.93;;
36457;SDS011;22480;50.546;12.292;2024-02-26T06:51:13;50.70;;;24.77;;
36457;SDS011;22480;50.546;12.292;2024-02-26T06:53:39;43.50;;;23.97;;
36457;SDS011;22480;50.546;12.292;2024-02-26T06:56:05;37.53;;;22.10;;
36457;SDS011;22480;50.546;12.292;2024-02-26T06:58:31;28.17;;;17.90;;
36457;SDS011;22480;50.546;12.292;2024-02-26T07:00:56;27.30;;;18.60;;
36457;SDS011;22480;50.546;12.292;2024-02-26T07:03:22;25.20;;;16.37;;
36457;SDS011;22480;50.546;12.292;2024-02-26T07:05:49;22.58;;;15.48;;
36457;SDS011;22480;50.546;12.292;2024-02-26T07:08:15;23.50;;;15.70;;
36457;SDS011;22480;50.546;12.292;2024-02-26T07:10:41;21.98;;;13.75;;
36457;SDS011;22480;50.546;12.292;2024-02-26T07:13:07;24.55;;;14.80;;
36457;SDS011;22480;50.546;12.292;2024-02-26T07:15:32;23.67;;;14.32;;
36457;SDS011;22480;50.546;12.292;2024-02-26T07:17:58;28.05;;;16.25;;
36457;SDS011;22480;50.546;12.292;2024-02-26T07:20:28;22.70;;;15.05;;
36457;SDS011;22480;50.546;12.292;2024-02-26T07:22:54;23.17;;;14.77;;
36457;SDS011;22480;50.546;12.292;2024-02-26T07:25:20;22.80;;;15.82;;
36457;SDS011;22480;50.546;12.292;2024-02-26T07:27:46;25.85;;;15.82;;
36457;SDS011;22480;50.546;12.292;2024-02-26T07:30:12;21.42;;;13.93;;
36457;SDS011;22480;50.546;12.292;2024-02-26T07:32:38;22.02;;;14.20;;
36457;SDS011;22480;50.546;12.292;2024-02-26T07:35:03;22.30;;;14.27;;
36457;SDS011;22480;50.546;12.292;2024-02-26T07:37:30;22.80;;;14.23;;
36457;SDS011;22480;50.546;12.292;2024-02-26T07:39:56;22.13;;;14.57;;
36457;SDS011;22480;50.546;12.292;2024-02-26T07:42:21;23.30;;;15.93;;
36457;SDS011;22480;50.546;12.292;2024-02-26T07:44:47;22.13;;;14.27;;
36457;SDS011;22480;50.546;12.292;2024-02-26T07:47:13;22.50;;;14.77;;
36457;SDS011;22480;50.546;12.292;2024-02-26T07:49:39;23.85;;;14.23;;
36457;SDS011;22480;50.546;12.292;2024-02-26T07:52:05;20.75;;;14.45;;
36457;SDS011;22480;50.546;12.292;2024-02-26T07:54:31;23.60;;;15.30;;
36457;SDS011;22480;50.546;12.292;2024-02-26T07:56:57;20.25;;;13.88;;
36457;SDS011;22480;50.546;12.292;2024-02-26T07:59:23;19.38;;;12.43;;
36457;SDS011;22480;50.546;12.292;2024-02-26T08:01:50;19.73;;;12.82;;
36457;SDS011;22480;50.546;12.292;2024-02-26T08:04:16;16.75;;;11.52;;
36457;SDS011;22480;50.546;12.292;2024-02-26T08:06:42;14.98;;;10.88;;
36457;SDS011;22480;50.546;12.292;2024-02-26T08:09:08;16.15;;;11.60;;
36457;SDS011;22480;50.546;12.292;2024-02-26T08:11:34;15.77;;;11.23;;
36457;SDS011;22480;50.546;12.292;2024-02-26T08:14:00;17.27;;;11.77;;
36457;SDS011;22480;50.546;12.292;2024-02-26T08:16:26;15.05;;;10.93;;
36457;SDS011;22480;50.546;12.292;2024-02-26T08:18:52;15.30;;;11.07;;
36457;SDS011;22480;50.546;12.292;2024-02-26T08:21:18;15.10;;;10.50;;
36457;SDS011;22480;50.546;12.292;2024-02-26T08:23:43;17.65;;;11.35;;
36457;SDS011;22480;50.546;12.292;2024-02-26T08:26:09;16.45;;;11.07;;
36457;SDS011;22480;50.546;12.292;2024-02-26T08:28:36;14.18;;;10.20;;
36457;SDS011;22480;50.546;12.292;2024-02-26T08:31:03;15.50;;;10.85;;
36457;SDS011;22480;50.546;12.292;2024-02-26T08:33:29;18.00;;;13.18;;
36457;SDS011;22480;50.546;12.292;2024-02-26T08:35:55;16.85;;;11.63;;
36457;SDS011;22480;50.546;12.292;2024-02-26T08:38:22;16.67;;;12.05;;
36457;SDS011;22480;50.546;12.292;2024-02-26T08:40:48;14.35;;;10.63;;
36457;SDS011;22480;50.546;12.292;2024-02-26T08:43:14;15.63;;;11.25;;
36457;SDS011;22480;50.546;12.292;2024-02-26T08:45:39;13.93;;;10.23;;
36457;SDS011;22480;50.546;12.292;2024-02-26T08:48:05;15.73;;;12.07;;
36457;SDS011;22480;50.546;12.292;2024-02-26T08:50:31;15.95;;;12.50;;
36457;SDS011;22480;50.546;12.292;2024-02-26T08:52:57;15.25;;;11.38;;
36457;SDS011;22480;50.546;12.292;2024-02-26T08:55:22;14.05;;;10.93;;
36457;SDS011;22480;50.546;12.292;2024-02-26T08:57:48;16.75;;;11.10;;
36457;SDS011;22480;50.546;12.292;2024-02-26T09:00:14;15.82;;;11.02;;
36457;SDS011;22480;50.546;12.292;2024-02-26T09:02:45;15.93;;;11.85;;
36457;SDS011;22480;50.546;12.292;2024-02-26T09:05:12;19.40;;;15.50;;
36457;SDS011;22480;50.546;12.292;2024-02-26T09:07:38;17.63;;;12.07;;
36457;SDS011;22480;50.546;12.292;2024-02-26T09:10:04;14.77;;;11.23;;
36457;SDS011;22480;50.546;12.292;2024-02-26T09:12:30;15.68;;;11.05;;
36457;SDS011;22480;50.546;12.292;2024-02-26T09:14:56;14.38;;;10.43;;
36457;SDS011;22480;50.546;12.292;2024-02-26T09:17:22;14.00;;;10.43;;
36457;SDS011;22480;50.546;12.292;2024-02-26T09:19:48;13.98;;;10.18;;
36457;SDS011;22480;50.546;12.292;2024-02-26T09:22:14;14.52;;;10.88;;
36457;SDS011;22480;50.546;12.292;2024-02-26T09:24:39;20.65;;;12.23;;
36457;SDS011;22480;50.546;12.292;2024-02-26T09:27:05;14.52;;;10.95;;
36457;SDS011;22480;50.546;12.292;2024-02-26T09:29:31;14.50;;;11.27;;
36457;SDS011;22480;50.546;12.292;2024-02-26T09:31:58;14.63;;;9.80;;
36457;SDS011;22480;50.546;12.292;2024-02-26T09:34:23;14.55;;;8.55;;
36457;SDS011;22480;50.546;12.292;2024-02-26T09:36:49;12.02;;;9.38;;
36457;SDS011;22480;50.546;12.292;2024-02-26T09:39:15;11.43;;;8.70;;
36457;SDS011;22480;50.546;12.292;2024-02-26T09:44:11;12.32;;;8.05;;
36457;SDS011;22480;50.546;12.292;2024-02-26T09:46:40;12.83;;;8.97;;
36457;SDS011;22480;50.546;12.292;2024-02-26T09:49:06;13.43;;;8.52;;
36457;SDS011;22480;50.546;12.292;2024-02-26T09:51:33;10.38;;;7.55;;
36457;SDS011;22480;50.546;12.292;2024-02-26T09:53:59;10.98;;;7.80;;
36457;SDS011;22480;50.546;12.292;2024-02-26T09:56:26;10.55;;;7.55;;
36457;SDS011;22480;50.546;12.292;2024-02-26T09:58:52;9.10;;;7.13;;
36457;SDS011;22480;50.546;12.292;2024-02-26T10:01:20;10.60;;;7.72;;
36457;SDS011;22480;50.546;12.292;2024-02-26T10:03:51;9.27;;;7.88;;
36457;SDS011;22480;50.546;12.292;2024-02-26T10:06:20;9.02;;;7.50;;
36457;SDS011;22480;50.546;12.292;2024-02-26T10:08:46;10.40;;;8.38;;
36457;SDS011;22480;50.546;12.292;2024-02-26T10:11:13;8.85;;;7.68;;
36457;SDS011;22480;50.546;12.292;2024-02-26T10:13:40;8.80;;;6.63;;
36457;SDS011;22480;50.546;12.292;2024-02-26T10:16:06;9.65;;;6.97;;
36457;SDS011;22480;50.546;12.292;2024-02-26T10:18:48;7.57;;;6.43;;
36457;SDS011;22480;50.546;12.292;2024-02-26T10:21:16;8.63;;;7.43;;
36457;SDS011;22480;50.546;12.292;2024-02-26T10:23:45;10.60;;;7.90;;
36457;SDS011;22480;50.546;12.292;2024-02-26T10:26:12;8.13;;;6.22;;
36457;SDS011;22480;50.546;12.292;2024-02-26T10:28:39;8.75;;;6.53;;
36457;SDS011;22480;50.546;12.292;2024-02-26T10:31:05;8.82;;;6.80;;
36457;SDS011;22480;50.546;12.292;2024-02-26T10:33:35;11.07;;;7.32;;
36457;SDS011;22480;50.546;12.292;2024-02-26T10:36:02;8.18;;;7.32;;
36457;SDS011;22480;50.546;12.292;2024-02-26T10:38:33;9.35;;;7.43;;
36457;SDS011;22480;50.546;12.292;2024-02-26T10:41:01;10.57;;;8.07;;
36457;SDS011;22480;50.546;12.292;2024-02-26T10:43:28;10.15;;;6.95;;
36457;SDS011;22480;50.546;12.292;2024-02-26T10:45:54;13.65;;;8.93;;
36457;SDS011;22480;50.546;12.292;2024-02-26T10:48:20;10.25;;;8.38;;
36457;SDS011;22480;50.546;12.292;2024-02-26T10:50:47;9.98;;;7.80;;
36457;SDS011;22480;50.546;12.292;2024-02-26T10:53:16;9.18;;;7.07;;
36457;SDS011;22480;50.546;12.292;2024-02-26T10:55:44;8.87;;;6.70;;
36457;SDS011;22480;50.546;12.292;2024-02-26T10:58:39;9.63;;;7.03;;
36457;SDS011;22480;50.546;12.292;2024-02-26T11:01:05;7.07;;;6.05;;
36457;SDS011;22480;50.546;12.292;2024-02-26T11:03:32;10.60;;;6.50;;
36457;SDS011;22480;50.546;12.292;2024-02-26T11:05:59;11.38;;;6.70;;
36457;SDS011;22480;50.546;12.292;2024-02-26T11:08:26;10.18;;;7.97;;
36457;SDS011;22480;50.546;12.292;2024-02-26T11:10:53;9.48;;;7.75;;
36457;SDS011;22480;50.546;12.292;2024-02-26T11:13:21;10.82;;;8.50;;
36457;SDS011;22480;50.546;12.292;2024-02-26T11:15:48;8.85;;;7.28;;
36457;SDS011;22480;50.546;12.292;2024-02-26T11:18:15;11.60;;;7.97;;
36457;SDS011;22480;50.546;12.292;2024-02-26T11:20:44;10.55;;;7.97;;
36457;SDS011;22480;50.546;12.292;2024-02-26T11:23:11;11.95;;;7.97;;
36457;SDS011;22480;50.546;12.292;2024-02-26T11:25:36;11.52;;;8.43;;
36457;SDS011;22480;50.546;12.292;2024-02-26T11:28:05;12.73;;;8.23;;
36457;SDS011;22480;50.546;12.292;2024-02-26T11:30:34;11.68;;;7.85;;
36457;SDS011;22480;50.546;12.292;2024-02-26T11:33:06;10.73;;;7.93;;
36457;SDS011;22480;50.546;12.292;2024-02-26T11:35:33;11.05;;;8.30;;
36457;SDS011;22480;50.546;12.292;2024-02-26T11:38:01;10.57;;;7.70;;
36457;SDS011;22480;50.546;12.292;2024-02-26T11:40:27;9.93;;;7.35;;
36457;SDS011;22480;50.546;12.292;2024-02-26T11:42:53;10.38;;;7.90;;
36457;SDS011;22480;50.546;12.292;2024-02-26T11:48:12;9.32;;;7.57;;
36457;SDS011;22480;50.546;12.292;2024-02-26T11:50:41;9.13;;;6.95;;
36457;SDS011;22480;50.546;12.292;2024-02-26T11:53:21;11.77;;;7.38;;
36457;SDS011;22480;50.546;12.292;2024-02-26T11:55:48;11.23;;;8.02;;
36457;SDS011;22480;50.546;12.292;2024-02-26T11:58:34;8.57;;;6.68;;
36457;SDS011;22480;50.546;12.292;2024-02-26T12:01:00;9.43;;;8.35;;
36457;SDS011;22480;50.546;12.292;2024-02-26T12:03:27;11.05;;;7.97;;
36457;SDS011;22480;50.546;12.292;2024-02-26T12:05:53;10.07;;;7.68;;
36457;SDS011;22480;50.546;12.292;2024-02-26T12:08:19;9.45;;;8.45;;
36457;SDS011;22480;50.546;12.292;2024-02-26T12:10:48;10.75;;;8.18;;
36457;SDS011;22480;50.546;12.292;2024-02-26T12:13:16;10.32;;;8.32;;
36457;SDS011;22480;50.546;12.292;2024-02-26T12:15:43;10.93;;;8.30;;
36457;SDS011;22480;50.546;12.292;2024-02-26T12:18:22;10.88;;;7.85;;
36457;SDS011;22480;50.546;12.292;2024-02-26T12:20:58;9.82;;;7.90;;
36457;SDS011;22480;50.546;12.292;2024-02-26T12:23:26;10.07;;;8.20;;
36457;SDS011;22480;50.546;12.292;2024-02-26T12:25:52;9.98;;;7.38;;
36457;SDS011;22480;50.546;12.292;2024-02-26T12:28:17;10.77;;;8.13;;
36457;SDS011;22480;50.546;12.292;2024-02-26T12:30:43;14.07;;;8.82;;
36457;SDS011;22480;50.546;12.292;2024-02-26T12:33:09;10.10;;;7.25;;
36457;SDS011;22480;50.546;12.292;2024-02-26T12:35:35;11.55;;;8.50;;
36457;SDS011;22480;50.546;12.292;2024-02-26T12:38:01;10.45;;;7.70;;
36457;SDS011;22480;50.546;12.292;2024-02-26T12:40:29;10.73;;;8.05;;
36457;SDS011;22480;50.546;12.292;2024-02-26T12:42:55;11.57;;;7.78;;
36457;SDS011;22480;50.546;12.292;2024-02-26T12:45:21;11.10;;;8.00;;
36457;SDS011;22480;50.546;12.292;2024-02-26T12:47:46;10.35;;;7.68;;
36457;SDS011;22480;50.546;12.292;2024-02-26T12:50:14;12.65;;;8.00;;
36457;SDS011;22480;50.546;12.292;2024-02-26T12:52:43;10.82;;;8.02;;
36457;SDS011;22480;50.546;12.292;2024-02-26T12:55:11;10.10;;;8.00;;
36457;SDS011;22480;50.546;12.292;2024-02-26T12:57:39;9.43;;;7.72;;
36457;SDS011;22480;50.546;12.292;2024-02-26T13:00:08;9.85;;;8.13;;
36457;SDS011;22480;50.546;12.292;2024-02-26T13:02:37;11.57;;;8.25;;
36457;SDS011;22480;50.546;12.292;2024-02-26T13:05:05;11.77;;;8.32;;
36457;SDS011;22480;50.546;12.292;2024-02-26T13:07:32;10.70;;;7.97;;
36457;SDS011;22480;50.546;12.292;2024-02-26T13:09:59;9.55;;;8.10;;
36457;SDS011;22480;50.546;12.292;2024-02-26T13:12:25;10.93;;;7.63;;
36457;SDS011;22480;50.546;12.292;2024-02-26T13:15:00;11.95;;;8.07;;
36457;SDS011;22480;50.546;12.292;2024-02-26T13:17:27;10.88;;;8.73;;
36457;SDS011;22480;50.546;12.292;2024-02-26T13:19:56;10.90;;;8.90;;
36457;SDS011;22480;50.546;12.292;2024-02-26T13:22:22;14.77;;;9.52;;
36457;SDS011;22480;50.546;12.292;2024-02-26T13:24:55;18.13;;;9.52;;
36457;SDS011;22480;50.546;12.292;2024-02-26T13:27:24;10.75;;;8.98;;
36457;SDS011;22480;50.546;12.292;2024-02-26T13:30:09;13.75;;;10.05;;
36457;SDS011;22480;50.546;12.292;2024-02-26T13:32:39;12.20;;;9.93;;
36457;SDS011;22480;50.546;12.292;2024-02-26T13:37:37;16.52;;;11.73;;
36457;SDS011;22480;50.546;12.292;2024-02-26T13:40:04;13.02;;;9.35;;
36457;SDS011;22480;50.546;12.292;2024-02-26T13:42:39;12.80;;;10.55;;
36457;SDS011;22480;50.546;12.292;2024-02-26T13:45:05;11.60;;;9.57;;
36457;SDS011;22480;50.546;12.292;2024-02-26T13:47:32;13.60;;;10.82;;
36457;SDS011;22480;50.546;12.292;2024-02-26T13:50:01;15.57;;;11.73;;
36457;SDS011;22480;50.546;12.292;2024-02-26T13:52:27;15.85;;;10.75;;
36457;SDS011;22480;50.546;12.292;2024-02-26T13:54:53;15.55;;;11.80;;
36457;SDS011;22480;50.546;12.292;2024-02-26T13:57:21;15.65;;;11.05;;
36457;SDS011;22480;50.546;12.292;2024-02-26T13:59:47;14.98;;;10.48;;
36457;SDS011;22480;50.546;12.292;2024-02-26T14:02:13;13.48;;;11.35;;
36457;SDS011;22480;50.546;12.292;2024-02-26T14:04:38;15.15;;;10.52;;
36457;SDS011;22480;50.546;12.292;2024-02-26T14:07:04;13.20;;;10.95;;
36457;SDS011;22480;50.546;12.292;2024-02-26T14:09:30;12.18;;;10.95;;
36457;SDS011;22480;50.546;12.292;2024-02-26T14:11:57;12.95;;;11.52;;
36457;SDS011;22480;50.546;12.292;2024-02-26T14:14:24;14.68;;;11.68;;
36457;SDS011;22480;50.546;12.292;2024-02-26T14:16:51;13.50;;;10.90;;
36457;SDS011;22480;50.546;12.292;2024-02-26T14:19:16;12.55;;;10.98;;